createdAt,value
2017-10-15T00:00:49.660Z,1020.89
2017-10-15T00:01:49.609Z,1020.90
2017-10-15T00:02:49.551Z,1020.94
2017-10-15T00:03:49.496Z,1020.92
2017-10-15T00:04:49.441Z,1020.90
2017-10-15T00:05:49.387Z,1020.96
2017-10-15T00:06:49.332Z,1020.96
2017-10-15T00:07:49.279Z,1020.94
2017-10-15T00:08:49.226Z,1020.91
2017-10-15T00:09:49.168Z,1020.92
2017-10-15T00:10:49.114Z,1020.89
2017-10-15T00:11:49.063Z,1020.91
2017-10-15T00:12:49.004Z,1020.93
2017-10-15T00:13:48.948Z,1020.92
2017-10-15T00:14:48.894Z,1020.93
2017-10-15T00:15:48.841Z,1020.89
2017-10-15T00:16:48.787Z,1020.93
2017-10-15T00:17:48.731Z,1020.95
2017-10-15T00:18:48.676Z,1020.94
2017-10-15T00:19:48.623Z,1020.91
2017-10-15T00:20:48.567Z,1020.94
2017-10-15T00:21:48.513Z,1021.01
2017-10-15T00:22:48.459Z,1020.98
2017-10-15T00:23:48.404Z,1020.97
2017-10-15T00:24:48.348Z,1020.95
2017-10-15T00:25:48.294Z,1021.01
2017-10-15T00:26:48.247Z,1020.95
2017-10-15T00:27:48.186Z,1020.97
2017-10-15T00:28:48.130Z,1021.01
2017-10-15T00:29:48.076Z,1020.95
2017-10-15T00:30:48.020Z,1020.97
2017-10-15T00:31:47.967Z,1020.96
2017-10-15T00:32:47.912Z,1020.93
2017-10-15T00:33:47.860Z,1020.95
2017-10-15T00:34:47.806Z,1020.95
2017-10-15T00:35:47.749Z,1020.92
2017-10-15T00:36:47.693Z,1020.91
2017-10-15T00:37:47.641Z,1020.91
2017-10-15T00:38:47.587Z,1020.95
2017-10-15T00:39:47.531Z,1020.93
2017-10-15T00:40:47.475Z,1020.91
2017-10-15T00:41:47.420Z,1020.89
2017-10-15T00:42:47.366Z,1020.92
2017-10-15T00:43:47.311Z,1020.92
2017-10-15T00:44:47.263Z,1020.89
2017-10-15T00:45:47.202Z,1020.89
2017-10-15T00:46:47.148Z,1020.91
2017-10-15T00:47:47.092Z,1020.85
2017-10-15T00:48:47.038Z,1020.91
2017-10-15T00:49:46.983Z,1020.87
2017-10-15T00:50:46.935Z,1020.87
2017-10-15T00:51:46.876Z,1020.85
2017-10-15T00:52:46.823Z,1020.83
2017-10-15T00:53:46.766Z,1020.81
2017-10-15T00:54:46.711Z,1020.79
2017-10-15T00:55:46.655Z,1020.77
2017-10-15T00:56:46.601Z,1020.77
2017-10-15T00:57:46.549Z,1020.76
2017-10-15T00:58:46.491Z,1020.73
2017-10-15T00:59:46.435Z,1020.75
2017-10-15T01:00:46.383Z,1020.71
2017-10-15T01:01:46.326Z,1020.76
2017-10-15T01:02:46.273Z,1020.80
2017-10-15T01:03:46.219Z,1020.77
2017-10-15T01:04:46.165Z,1020.82
2017-10-15T01:05:46.108Z,1020.80
2017-10-15T01:06:46.056Z,1020.78
2017-10-15T01:07:46.001Z,1020.79
2017-10-15T01:08:45.948Z,1020.84
2017-10-15T01:09:45.890Z,1020.84
2017-10-15T01:10:45.837Z,1020.86
2017-10-15T01:11:45.781Z,1020.88
2017-10-15T01:12:45.726Z,1020.86
2017-10-15T01:13:45.671Z,1020.88
2017-10-15T01:14:45.619Z,1020.87
2017-10-15T01:15:45.565Z,1020.85
2017-10-15T01:16:45.509Z,1020.88
2017-10-15T01:17:45.455Z,1020.87
2017-10-15T01:18:45.415Z,1020.91
2017-10-15T01:19:45.345Z,1020.92
2017-10-15T01:20:45.289Z,1020.87
2017-10-15T01:21:45.234Z,1020.87
2017-10-15T01:22:45.181Z,1020.85
2017-10-15T01:23:45.128Z,1020.87
2017-10-15T01:24:45.071Z,1020.86
2017-10-15T01:25:45.018Z,1020.91
2017-10-15T01:26:44.962Z,1020.88
2017-10-15T01:27:44.910Z,1020.86
2017-10-15T01:28:44.851Z,1020.90
2017-10-15T01:29:44.797Z,1020.85
2017-10-15T01:30:44.744Z,1020.85
2017-10-15T01:31:44.688Z,1020.86
2017-10-15T01:32:44.633Z,1020.88
2017-10-15T01:33:44.579Z,1020.89
2017-10-15T01:34:44.531Z,1020.87
2017-10-15T01:35:44.471Z,1020.90
2017-10-15T01:36:44.414Z,1020.86
2017-10-15T01:37:44.360Z,1020.86
2017-10-15T01:38:44.305Z,1020.84
2017-10-15T01:39:44.250Z,1020.82
2017-10-15T01:40:44.197Z,1020.81
2017-10-15T01:41:44.143Z,1020.80
2017-10-15T01:42:44.087Z,1020.79
2017-10-15T01:43:44.032Z,1020.81
2017-10-15T01:44:43.980Z,1020.79
2017-10-15T01:45:43.923Z,1020.80
2017-10-15T01:46:43.868Z,1020.76
2017-10-15T01:47:43.813Z,1020.77
2017-10-15T01:48:43.759Z,1020.79
2017-10-15T01:49:43.705Z,1020.81
2017-10-15T01:50:43.648Z,1020.82
2017-10-15T01:51:43.593Z,1020.82
2017-10-15T01:52:43.540Z,1020.85
2017-10-15T01:53:43.485Z,1020.83
2017-10-15T01:54:43.429Z,1020.84
2017-10-15T01:55:43.376Z,1020.86
2017-10-15T01:56:43.321Z,1020.90
2017-10-15T01:57:43.266Z,1020.89
2017-10-15T01:58:43.214Z,1020.92
2017-10-15T01:59:43.160Z,1020.87
2017-10-15T02:00:43.102Z,1020.92
2017-10-15T02:01:43.047Z,1020.91
2017-10-15T02:02:42.994Z,1020.92
2017-10-15T02:03:42.939Z,1020.94
2017-10-15T02:04:42.882Z,1020.92
2017-10-15T02:05:42.828Z,1020.92
2017-10-15T02:06:42.773Z,1020.94
2017-10-15T02:07:42.719Z,1020.94
2017-10-15T02:08:42.664Z,1020.92
2017-10-15T02:09:42.607Z,1020.91
2017-10-15T02:10:42.558Z,1020.88
2017-10-15T02:11:42.500Z,1020.88
2017-10-15T02:12:42.445Z,1020.89
2017-10-15T02:13:42.393Z,1020.86
2017-10-15T02:14:42.338Z,1020.82
2017-10-15T02:15:42.281Z,1020.80
2017-10-15T02:16:42.226Z,1020.82
2017-10-15T02:17:42.172Z,1020.80
2017-10-15T02:18:42.117Z,1020.82
2017-10-15T02:19:42.066Z,1020.86
2017-10-15T02:20:42.007Z,1020.82
2017-10-15T02:21:41.952Z,1020.85
2017-10-15T02:22:41.898Z,1020.85
2017-10-15T02:23:41.842Z,1020.84
2017-10-15T02:24:41.790Z,1020.85
2017-10-15T02:25:41.734Z,1020.89
2017-10-15T02:26:41.681Z,1020.90
2017-10-15T02:27:41.624Z,1020.97
2017-10-15T02:28:41.570Z,1020.98
2017-10-15T02:29:41.516Z,1020.99
2017-10-15T02:30:41.461Z,1021.05
2017-10-15T02:31:41.407Z,1021.07
2017-10-15T02:32:41.351Z,1021.03
2017-10-15T02:33:41.298Z,1021.00
2017-10-15T02:34:41.243Z,1021.01
2017-10-15T02:35:41.188Z,1021.01
2017-10-15T02:36:41.134Z,1021.02
2017-10-15T02:37:41.082Z,1020.99
2017-10-15T02:38:41.022Z,1021.01
2017-10-15T02:39:40.968Z,1021.01
2017-10-15T02:40:40.913Z,1021.03
2017-10-15T02:41:40.860Z,1021.03
2017-10-15T02:42:40.807Z,1021.03
2017-10-15T02:43:40.749Z,1021.05
2017-10-15T02:44:40.695Z,1021.05
2017-10-15T02:45:40.641Z,1021.04
2017-10-15T02:46:40.586Z,1021.05
2017-10-15T02:47:40.531Z,1021.05
2017-10-15T02:48:40.477Z,1021.10
2017-10-15T02:49:40.427Z,1021.11
2017-10-15T02:50:40.370Z,1021.14
2017-10-15T02:51:40.312Z,1021.13
2017-10-15T02:52:40.257Z,1021.14
2017-10-15T02:53:40.203Z,1021.15
2017-10-15T02:54:40.148Z,1021.20
2017-10-15T02:55:40.094Z,1021.17
2017-10-15T02:56:40.040Z,1021.20
2017-10-15T02:57:39.984Z,1021.21
2017-10-15T02:58:39.932Z,1021.19
2017-10-15T02:59:39.874Z,1021.22
2017-10-15T03:00:39.821Z,1021.17
2017-10-15T03:01:39.766Z,1021.12
2017-10-15T03:02:39.711Z,1021.13
2017-10-15T03:03:39.656Z,1021.18
2017-10-15T03:04:39.602Z,1021.14
2017-10-15T03:05:39.547Z,1021.15
2017-10-15T03:06:39.492Z,1021.14
2017-10-15T03:07:39.437Z,1021.16
2017-10-15T03:08:39.383Z,1021.11
2017-10-15T03:09:39.328Z,1021.15
2017-10-15T03:10:39.274Z,1021.13
2017-10-15T03:11:39.219Z,1021.13
2017-10-15T03:12:39.164Z,1021.12
2017-10-15T03:13:39.112Z,1021.13
2017-10-15T03:14:39.057Z,1021.09
2017-10-15T03:15:39.001Z,1021.11
2017-10-15T03:16:38.945Z,1021.12
2017-10-15T03:17:38.892Z,1021.11
2017-10-15T03:18:38.836Z,1021.11
2017-10-15T03:19:38.781Z,1021.14
2017-10-15T03:20:38.726Z,1021.16
2017-10-15T03:21:38.662Z,1021.18
2017-10-15T03:22:38.617Z,1021.17
2017-10-15T03:23:38.563Z,1021.14
2017-10-15T03:24:38.508Z,1021.16
2017-10-15T03:25:38.452Z,1021.15
2017-10-15T03:26:38.388Z,1021.20
2017-10-15T03:27:38.344Z,1021.20
2017-10-15T03:28:38.289Z,1021.20
2017-10-15T03:29:38.234Z,1021.21
2017-10-15T03:30:38.182Z,1021.20
2017-10-15T03:31:38.117Z,1021.29
2017-10-15T03:32:38.070Z,1021.31
2017-10-15T03:33:38.017Z,1021.31
2017-10-15T03:34:37.962Z,1021.31
2017-10-15T03:35:37.916Z,1021.32
2017-10-15T03:36:37.842Z,1021.37
2017-10-15T03:37:37.798Z,1021.39
2017-10-15T03:38:37.742Z,1021.37
2017-10-15T03:39:37.689Z,1021.34
2017-10-15T03:40:37.633Z,1021.35
2017-10-15T03:41:37.567Z,1021.34
2017-10-15T03:42:37.524Z,1021.35
2017-10-15T03:43:37.470Z,1021.32
2017-10-15T03:44:37.415Z,1021.34
2017-10-15T03:45:37.360Z,1021.36
2017-10-15T03:46:37.291Z,1021.41
2017-10-15T03:47:37.250Z,1021.33
2017-10-15T03:48:37.196Z,1021.39
2017-10-15T03:49:37.141Z,1021.38
2017-10-15T03:50:37.086Z,1021.33
2017-10-15T03:51:37.017Z,1021.37
2017-10-15T03:52:36.979Z,1021.38
2017-10-15T03:53:36.925Z,1021.35
2017-10-15T03:54:36.868Z,1021.35
2017-10-15T03:55:36.813Z,1021.39
2017-10-15T03:56:36.776Z,1021.40
2017-10-15T03:57:36.705Z,1021.37
2017-10-15T03:58:36.650Z,1021.37
2017-10-15T03:59:36.596Z,1021.43
2017-10-15T04:00:36.541Z,1021.42
2017-10-15T04:01:36.477Z,1021.44
2017-10-15T04:02:36.435Z,1021.40
2017-10-15T04:03:36.378Z,1021.42
2017-10-15T04:04:36.302Z,1021.42
2017-10-15T04:05:36.248Z,1021.44
2017-10-15T04:06:36.197Z,1021.41
2017-10-15T04:07:36.137Z,1021.39
2017-10-15T04:08:36.081Z,1021.43
2017-10-15T04:09:36.027Z,1021.41
2017-10-15T04:10:35.974Z,1021.40
2017-10-15T04:11:35.919Z,1021.38
2017-10-15T04:12:35.862Z,1021.38
2017-10-15T04:13:35.808Z,1021.37
2017-10-15T04:14:35.755Z,1021.39
2017-10-15T04:15:35.698Z,1021.42
2017-10-15T04:16:35.643Z,1021.38
2017-10-15T04:17:35.589Z,1021.41
2017-10-15T04:18:35.533Z,1021.44
2017-10-15T04:19:35.479Z,1021.43
2017-10-15T04:20:35.424Z,1021.48
2017-10-15T04:21:35.370Z,1021.48
2017-10-15T04:22:35.314Z,1021.55
2017-10-15T04:23:35.258Z,1021.47
2017-10-15T04:24:35.204Z,1021.51
2017-10-15T04:25:35.147Z,1021.46
2017-10-15T04:26:35.094Z,1021.52
2017-10-15T04:27:35.042Z,1021.46
2017-10-15T04:28:34.983Z,1021.50
2017-10-15T04:29:34.928Z,1021.50
2017-10-15T04:30:34.876Z,1021.53
2017-10-15T04:31:34.820Z,1021.48
2017-10-15T04:32:34.764Z,1021.52
2017-10-15T04:33:34.707Z,1021.54
2017-10-15T04:34:34.655Z,1021.50
2017-10-15T04:35:34.600Z,1021.47
2017-10-15T04:36:34.544Z,1021.52
2017-10-15T04:37:34.489Z,1021.52
2017-10-15T04:38:34.433Z,1021.48
2017-10-15T04:39:34.380Z,1021.43
2017-10-15T04:40:34.319Z,1021.45
2017-10-15T04:41:34.269Z,1021.43
2017-10-15T04:42:34.214Z,1021.43
2017-10-15T04:43:34.161Z,1021.44
2017-10-15T04:44:34.105Z,1021.42
2017-10-15T04:45:34.050Z,1021.44
2017-10-15T04:46:34.002Z,1021.43
2017-10-15T04:47:33.940Z,1021.40
2017-10-15T04:48:33.882Z,1021.42
2017-10-15T04:49:33.831Z,1021.44
2017-10-15T04:50:33.775Z,1021.46
2017-10-15T04:51:33.726Z,1021.48
2017-10-15T04:52:33.669Z,1021.51
2017-10-15T04:53:33.609Z,1021.50
2017-10-15T04:54:33.551Z,1021.47
2017-10-15T04:55:33.500Z,1021.46
2017-10-15T04:56:33.445Z,1021.47
2017-10-15T04:57:33.390Z,1021.49
2017-10-15T04:58:33.335Z,1021.45
2017-10-15T04:59:33.281Z,1021.40
2017-10-15T05:00:33.234Z,1021.41
2017-10-15T05:01:33.169Z,1021.43
2017-10-15T05:02:33.113Z,1021.42
2017-10-15T05:03:33.060Z,1021.46
2017-10-15T05:04:33.004Z,1021.46
2017-10-15T05:05:32.950Z,1021.48
2017-10-15T05:06:32.895Z,1021.41
2017-10-15T05:07:32.834Z,1021.47
2017-10-15T05:08:32.776Z,1021.45
2017-10-15T05:09:32.721Z,1021.43
2017-10-15T05:10:32.669Z,1021.47
2017-10-15T05:11:32.612Z,1021.44
2017-10-15T05:12:32.558Z,1021.45
2017-10-15T05:13:32.502Z,1021.45
2017-10-15T05:14:32.447Z,1021.48
2017-10-15T05:15:32.393Z,1021.51
2017-10-15T05:16:32.336Z,1021.51
2017-10-15T05:17:32.282Z,1021.56
2017-10-15T05:18:32.226Z,1021.56
2017-10-15T05:19:32.172Z,1021.55
2017-10-15T05:20:32.121Z,1021.60
2017-10-15T05:21:32.061Z,1021.59
2017-10-15T05:22:32.010Z,1021.62
2017-10-15T05:23:31.951Z,1021.62
2017-10-15T05:24:31.897Z,1021.63
2017-10-15T05:25:31.847Z,1021.60
2017-10-15T05:26:31.793Z,1021.63
2017-10-15T05:27:31.734Z,1021.59
2017-10-15T05:28:31.677Z,1021.57
2017-10-15T05:29:31.622Z,1021.59
2017-10-15T05:30:31.569Z,1021.58
2017-10-15T05:31:31.511Z,1021.55
2017-10-15T05:32:31.457Z,1021.56
2017-10-15T05:33:31.402Z,1021.58
2017-10-15T05:34:31.363Z,1021.57
2017-10-15T05:35:31.293Z,1021.57
2017-10-15T05:36:31.242Z,1021.58
2017-10-15T05:37:31.183Z,1021.60
2017-10-15T05:38:31.127Z,1021.58
2017-10-15T05:39:31.078Z,1021.56
2017-10-15T05:40:31.020Z,1021.60
2017-10-15T05:41:30.964Z,1021.54
2017-10-15T05:42:30.907Z,1021.56
2017-10-15T05:43:30.851Z,1021.53
2017-10-15T05:44:30.797Z,1021.52
2017-10-15T05:45:30.742Z,1021.58
2017-10-15T05:46:30.686Z,1021.57
2017-10-15T05:47:30.632Z,1021.56
2017-10-15T05:48:30.577Z,1021.53
2017-10-15T05:49:30.532Z,1021.58
2017-10-15T05:50:30.469Z,1021.55
2017-10-15T05:51:30.414Z,1021.60
2017-10-15T05:52:30.356Z,1021.56
2017-10-15T05:53:30.301Z,1021.61
2017-10-15T05:54:30.249Z,1021.59
2017-10-15T05:55:30.198Z,1021.55
2017-10-15T05:56:30.137Z,1021.58
2017-10-15T05:57:30.081Z,1021.52
2017-10-15T05:58:30.028Z,1021.52
2017-10-15T05:59:29.973Z,1021.52
2017-10-15T06:00:29.917Z,1021.55
2017-10-15T06:01:29.863Z,1021.53
2017-10-15T06:02:29.807Z,1021.54
2017-10-15T06:03:29.752Z,1021.55
2017-10-15T06:04:29.698Z,1021.56
2017-10-15T06:05:29.643Z,1021.55
2017-10-15T06:06:29.588Z,1021.57
2017-10-15T06:07:29.534Z,1021.56
2017-10-15T06:08:29.480Z,1021.59
2017-10-15T06:09:29.426Z,1021.62
2017-10-15T06:10:29.374Z,1021.59
2017-10-15T06:11:29.316Z,1021.61
2017-10-15T06:12:29.261Z,1021.62
2017-10-15T06:13:29.205Z,1021.56
2017-10-15T06:14:29.151Z,1021.63
2017-10-15T06:15:29.098Z,1021.63
2017-10-15T06:16:29.042Z,1021.66
2017-10-15T06:17:28.987Z,1021.66
2017-10-15T06:18:28.931Z,1021.65
2017-10-15T06:19:28.878Z,1021.68
2017-10-15T06:20:28.822Z,1021.67
2017-10-15T06:21:28.769Z,1021.70
2017-10-15T06:22:28.713Z,1021.74
2017-10-15T06:23:28.658Z,1021.74
2017-10-15T06:24:28.603Z,1021.66
2017-10-15T06:25:28.549Z,1021.68
2017-10-15T06:26:28.495Z,1021.71
2017-10-15T06:27:28.438Z,1021.71
2017-10-15T06:28:28.384Z,1021.71
2017-10-15T06:29:28.330Z,1021.77
2017-10-15T06:30:28.275Z,1021.77
2017-10-15T06:31:28.220Z,1021.77
2017-10-15T06:32:28.167Z,1021.76
2017-10-15T06:33:28.111Z,1021.80
2017-10-15T06:34:28.056Z,1021.82
2017-10-15T06:35:28.008Z,1021.84
2017-10-15T06:36:27.947Z,1021.88
2017-10-15T06:37:27.892Z,1021.92
2017-10-15T06:38:27.837Z,1021.88
2017-10-15T06:39:27.783Z,1021.90
2017-10-15T06:40:27.732Z,1021.91
2017-10-15T06:41:27.674Z,1021.89
2017-10-15T06:42:27.619Z,1021.92
2017-10-15T06:43:27.564Z,1021.96
2017-10-15T06:44:27.510Z,1021.94
2017-10-15T06:45:27.456Z,1021.94
2017-10-15T06:46:27.401Z,1021.96
2017-10-15T06:47:27.347Z,1021.98
2017-10-15T06:48:27.291Z,1021.96
2017-10-15T06:49:27.238Z,1021.94
2017-10-15T06:50:27.183Z,1021.97
2017-10-15T06:51:27.129Z,1021.96
2017-10-15T06:52:27.073Z,1021.97
2017-10-15T06:53:27.018Z,1021.94
2017-10-15T06:54:26.964Z,1021.99
2017-10-15T06:55:26.911Z,1021.96
2017-10-15T06:56:26.855Z,1022.02
2017-10-15T06:57:26.801Z,1022.03
2017-10-15T06:58:26.748Z,1022.07
2017-10-15T06:59:26.693Z,1022.08
2017-10-15T07:00:26.638Z,1022.13
2017-10-15T07:01:26.585Z,1022.15
2017-10-15T07:02:26.531Z,1022.16
2017-10-15T07:03:26.477Z,1022.17
2017-10-15T07:04:26.422Z,1022.20
2017-10-15T07:05:26.368Z,1022.20
2017-10-15T07:06:26.314Z,1022.19
2017-10-15T07:07:26.260Z,1022.21
2017-10-15T07:08:26.211Z,1022.19
2017-10-15T07:09:26.152Z,1022.19
2017-10-15T07:10:26.105Z,1022.21
2017-10-15T07:11:26.048Z,1022.17
2017-10-15T07:12:25.994Z,1022.21
2017-10-15T07:13:25.940Z,1022.22
2017-10-15T07:14:25.883Z,1022.17
2017-10-15T07:15:25.833Z,1022.19
2017-10-15T07:16:25.774Z,1022.22
2017-10-15T07:17:25.720Z,1022.18
2017-10-15T07:18:25.668Z,1022.17
2017-10-15T07:19:25.616Z,1022.19
2017-10-15T07:20:25.570Z,1022.18
2017-10-15T07:21:25.515Z,1022.19
2017-10-15T07:22:25.461Z,1022.25
2017-10-15T07:23:25.407Z,1022.22
2017-10-15T07:24:25.362Z,1022.29
2017-10-15T07:25:25.302Z,1022.24
2017-10-15T07:26:25.251Z,1022.30
2017-10-15T07:27:25.200Z,1022.31
2017-10-15T07:28:25.144Z,1022.31
2017-10-15T07:29:25.092Z,1022.33
2017-10-15T07:30:25.039Z,1022.37
2017-10-15T07:31:25.004Z,1022.37
2017-10-15T07:32:24.950Z,1022.39
2017-10-15T07:33:24.895Z,1022.44
2017-10-15T07:34:24.841Z,1022.41
2017-10-15T07:35:24.778Z,1022.44
2017-10-15T07:36:24.732Z,1022.42
2017-10-15T07:37:24.677Z,1022.40
2017-10-15T07:38:24.624Z,1022.44
2017-10-15T07:39:24.581Z,1022.44
2017-10-15T07:40:24.519Z,1022.42
2017-10-15T07:41:24.465Z,1022.43
2017-10-15T07:42:24.412Z,1022.44
2017-10-15T07:43:24.359Z,1022.45
2017-10-15T07:44:24.309Z,1022.50
2017-10-15T07:45:24.261Z,1022.51
2017-10-15T07:46:24.203Z,1022.51
2017-10-15T07:47:24.158Z,1022.48
2017-10-15T07:48:24.110Z,1022.53
2017-10-15T07:49:24.058Z,1022.55
2017-10-15T07:50:24.006Z,1022.54
2017-10-15T07:51:23.977Z,1022.54
2017-10-15T07:52:23.921Z,1022.50
2017-10-15T07:53:23.867Z,1022.51
2017-10-15T07:54:23.816Z,1022.51
2017-10-15T07:55:23.788Z,1022.53
2017-10-15T07:56:23.705Z,1022.55
2017-10-15T07:57:23.653Z,1022.56
2017-10-15T07:58:23.600Z,1022.59
2017-10-15T07:59:23.551Z,1022.60
2017-10-15T08:00:23.497Z,1022.64
2017-10-15T08:01:23.446Z,1022.62
2017-10-15T08:02:23.396Z,1022.63
2017-10-15T08:03:23.352Z,1022.61
2017-10-15T08:04:23.299Z,1022.65
2017-10-15T08:05:23.251Z,1022.61
2017-10-15T08:06:23.222Z,1022.62
2017-10-15T08:07:23.166Z,1022.63
2017-10-15T08:08:23.111Z,1022.63
2017-10-15T08:09:23.058Z,1022.63
2017-10-15T08:10:23.006Z,1022.69
2017-10-15T08:11:22.958Z,1022.65
2017-10-15T08:12:22.902Z,1022.66
2017-10-15T08:13:22.850Z,1022.63
2017-10-15T08:14:22.802Z,1022.67
2017-10-15T08:15:22.761Z,1022.68
2017-10-15T08:16:22.712Z,1022.70
2017-10-15T08:17:22.662Z,1022.73
2017-10-15T08:18:22.633Z,1022.65
2017-10-15T08:19:22.575Z,1022.65
2017-10-15T08:20:22.521Z,1022.64
2017-10-15T08:21:22.473Z,1022.61
2017-10-15T08:22:22.423Z,1022.65
2017-10-15T08:23:22.373Z,1022.69
2017-10-15T08:24:22.332Z,1022.68
2017-10-15T08:25:22.293Z,1022.70
2017-10-15T08:26:22.256Z,1022.70
2017-10-15T08:27:22.203Z,1022.71
2017-10-15T08:28:22.150Z,1022.70
2017-10-15T08:29:22.103Z,1022.68
2017-10-15T08:30:22.055Z,1022.67
2017-10-15T08:31:22.016Z,1022.65
2017-10-15T08:32:21.973Z,1022.66
2017-10-15T08:33:21.939Z,1022.66
2017-10-15T08:34:21.886Z,1022.65
2017-10-15T08:35:21.839Z,1022.62
2017-10-15T08:36:21.790Z,1022.63
2017-10-15T08:37:21.754Z,1022.66
2017-10-15T08:38:21.739Z,1022.64
2017-10-15T08:39:21.676Z,1022.66
2017-10-15T08:40:21.633Z,1022.62
2017-10-15T08:41:21.578Z,1022.62
2017-10-15T08:42:21.539Z,1022.63
2017-10-15T08:43:21.498Z,1022.64
2017-10-15T08:44:21.466Z,1022.61
2017-10-15T08:45:21.424Z,1022.63
2017-10-15T08:46:21.371Z,1022.61
2017-10-15T08:47:21.332Z,1022.60
2017-10-15T08:48:21.291Z,1022.61
2017-10-15T08:49:21.257Z,1022.63
2017-10-15T08:50:21.207Z,1022.63
2017-10-15T08:51:21.162Z,1022.61
2017-10-15T08:52:21.126Z,1022.64
2017-10-15T08:53:21.106Z,1022.63
2017-10-15T08:54:21.048Z,1022.60
2017-10-15T08:55:21.002Z,1022.63
2017-10-15T08:56:20.957Z,1022.67
2017-10-15T08:57:20.933Z,1022.63
2017-10-15T08:58:20.899Z,1022.64
2017-10-15T08:59:20.842Z,1022.65
2017-10-15T09:00:20.796Z,1022.63
2017-10-15T09:01:20.761Z,1022.60
2017-10-15T09:02:20.719Z,1022.63
2017-10-15T09:03:20.687Z,1022.70
2017-10-15T09:04:20.639Z,1022.68
2017-10-15T09:05:20.593Z,1022.69
2017-10-15T09:06:20.562Z,1022.69
2017-10-15T09:07:20.532Z,1022.71
2017-10-15T09:08:20.484Z,1022.70
2017-10-15T09:09:20.434Z,1022.69
2017-10-15T09:10:20.402Z,1022.68
2017-10-15T09:11:20.376Z,1022.72
2017-10-15T09:12:20.327Z,1022.73
2017-10-15T09:13:20.277Z,1022.72
2017-10-15T09:14:20.238Z,1022.76
2017-10-15T09:15:20.203Z,1022.74
2017-10-15T09:16:20.169Z,1022.72
2017-10-15T09:17:20.121Z,1022.73
2017-10-15T09:18:20.081Z,1022.67
2017-10-15T09:19:20.042Z,1022.74
2017-10-15T09:20:20.015Z,1022.67
2017-10-15T09:21:19.963Z,1022.74
2017-10-15T09:22:19.918Z,1022.73
2017-10-15T09:23:19.884Z,1022.72
2017-10-15T09:24:19.861Z,1022.70
2017-10-15T09:25:19.807Z,1022.67
2017-10-15T09:26:19.763Z,1022.70
2017-10-15T09:27:19.723Z,1022.69
2017-10-15T09:28:19.685Z,1022.68
2017-10-15T09:29:19.652Z,1022.68
2017-10-15T09:30:19.605Z,1022.68
2017-10-15T09:31:19.559Z,1022.67
2017-10-15T09:32:19.526Z,1022.65
2017-10-15T09:33:19.498Z,1022.68
2017-10-15T09:34:19.447Z,1022.66
2017-10-15T09:35:19.405Z,1022.67
2017-10-15T09:36:19.369Z,1022.68
2017-10-15T09:37:19.345Z,1022.66
2017-10-15T09:38:19.291Z,1022.64
2017-10-15T09:39:19.246Z,1022.62
2017-10-15T09:40:19.205Z,1022.67
2017-10-15T09:41:19.169Z,1022.68
2017-10-15T09:42:19.148Z,1022.63
2017-10-15T09:43:19.088Z,1022.59
2017-10-15T09:44:19.045Z,1022.57
2017-10-15T09:45:19.011Z,1022.52
2017-10-15T09:46:18.981Z,1022.59
2017-10-15T09:47:18.932Z,1022.54
2017-10-15T09:48:18.887Z,1022.54
2017-10-15T09:49:18.850Z,1022.56
2017-10-15T09:50:18.834Z,1022.54
2017-10-15T09:51:18.775Z,1022.54
2017-10-15T09:52:18.729Z,1022.57
2017-10-15T09:53:18.693Z,1022.51
2017-10-15T09:54:18.653Z,1022.50
2017-10-15T09:55:18.618Z,1022.47
2017-10-15T09:56:18.571Z,1022.50
2017-10-15T09:57:18.526Z,1022.47
2017-10-15T09:58:18.498Z,1022.49
2017-10-15T09:59:18.464Z,1022.51
2017-10-15T10:00:18.419Z,1022.49
2017-10-15T10:01:18.372Z,1022.51
2017-10-15T10:02:18.330Z,1022.43
2017-10-15T10:03:18.291Z,1022.47
2017-10-15T10:04:18.257Z,1022.41
2017-10-15T10:05:18.207Z,1022.38
2017-10-15T10:06:18.163Z,1022.37
2017-10-15T10:07:18.128Z,1022.32
2017-10-15T10:08:18.102Z,1022.35
2017-10-15T10:09:18.054Z,1022.33
2017-10-15T10:10:18.003Z,1022.31
2017-10-15T10:11:17.955Z,1022.33
2017-10-15T10:12:17.919Z,1022.30
2017-10-15T10:13:17.894Z,1022.30
2017-10-15T10:14:17.840Z,1022.26
2017-10-15T10:15:17.792Z,1022.27
2017-10-15T10:16:17.752Z,1022.23
2017-10-15T10:17:17.704Z,1022.22
2017-10-15T10:18:17.671Z,1022.19
2017-10-15T10:19:17.636Z,1022.20
2017-10-15T10:20:17.578Z,1022.24
2017-10-15T10:21:17.531Z,1022.20
2017-10-15T10:22:17.484Z,1022.17
2017-10-15T10:23:17.446Z,1022.17
2017-10-15T10:24:17.402Z,1022.14
2017-10-15T10:25:17.368Z,1022.13
2017-10-15T10:26:17.315Z,1022.08
2017-10-15T10:27:17.267Z,1022.14
2017-10-15T10:28:17.221Z,1022.08
2017-10-15T10:29:17.179Z,1022.10
2017-10-15T10:30:17.145Z,1022.10
2017-10-15T10:31:17.105Z,1022.05
2017-10-15T10:32:17.051Z,1022.04
2017-10-15T10:33:17.001Z,1022.01
2017-10-15T10:34:16.953Z,1022.01
2017-10-15T10:35:16.908Z,1021.98
2017-10-15T10:36:16.866Z,1021.95
2017-10-15T10:37:16.819Z,1021.95
2017-10-15T10:38:16.787Z,1021.88
2017-10-15T10:39:16.733Z,1021.91
2017-10-15T10:40:16.682Z,1021.91
2017-10-15T10:41:16.634Z,1021.84
2017-10-15T10:42:16.588Z,1021.84
2017-10-15T10:43:16.547Z,1021.85
2017-10-15T10:44:16.495Z,1021.81
2017-10-15T10:45:16.455Z,1021.77
2017-10-15T10:46:16.420Z,1021.82
2017-10-15T10:47:16.358Z,1021.82
2017-10-15T10:48:16.311Z,1021.80
2017-10-15T10:49:16.261Z,1021.81
2017-10-15T10:50:16.212Z,1021.77
2017-10-15T10:51:16.170Z,1021.79
2017-10-15T10:52:16.123Z,1021.79
2017-10-15T10:53:16.075Z,1021.77
2017-10-15T10:54:16.044Z,1021.76
2017-10-15T10:55:15.989Z,1021.76
2017-10-15T10:56:15.936Z,1021.79
2017-10-15T10:57:15.879Z,1021.78
2017-10-15T10:58:15.834Z,1021.74
2017-10-15T10:59:15.789Z,1021.74
2017-10-15T11:00:15.737Z,1021.76
2017-10-15T11:01:15.696Z,1021.75
2017-10-15T11:02:15.644Z,1021.70
2017-10-15T11:03:15.596Z,1021.76
2017-10-15T11:04:15.564Z,1021.69
2017-10-15T11:05:15.510Z,1021.70
2017-10-15T11:06:15.457Z,1021.68
2017-10-15T11:07:15.410Z,1021.68
2017-10-15T11:08:15.357Z,1021.68
2017-10-15T11:09:15.306Z,1021.64
2017-10-15T11:10:15.257Z,1021.62
2017-10-15T11:11:15.213Z,1021.61
2017-10-15T11:12:15.166Z,1021.60
2017-10-15T11:13:15.117Z,1021.59
2017-10-15T11:14:15.083Z,1021.62
2017-10-15T11:15:15.029Z,1021.58
2017-10-15T11:16:14.975Z,1021.62
2017-10-15T11:17:14.923Z,1021.56
2017-10-15T11:18:14.873Z,1021.56
2017-10-15T11:19:14.823Z,1021.51
2017-10-15T11:20:14.771Z,1021.51
2017-10-15T11:21:14.729Z,1021.45
2017-10-15T11:22:14.682Z,1021.46
2017-10-15T11:23:14.634Z,1021.46
2017-10-15T11:24:14.582Z,1021.41
2017-10-15T11:25:14.547Z,1021.37
2017-10-15T11:26:14.494Z,1021.32
2017-10-15T11:27:14.436Z,1021.33
2017-10-15T11:28:14.387Z,1021.29
2017-10-15T11:29:14.337Z,1021.31
2017-10-15T11:30:14.286Z,1021.29
2017-10-15T11:31:14.235Z,1021.31
2017-10-15T11:32:14.190Z,1021.31
2017-10-15T11:33:14.142Z,1021.27
2017-10-15T11:34:14.093Z,1021.24
2017-10-15T11:35:14.043Z,1021.21
2017-10-15T11:36:13.994Z,1021.20
2017-10-15T11:37:13.945Z,1021.23
2017-10-15T11:38:13.905Z,1021.21
2017-10-15T11:39:13.851Z,1021.18
2017-10-15T11:40:13.799Z,1021.21
2017-10-15T11:41:13.748Z,1021.17
2017-10-15T11:42:13.698Z,1021.16
2017-10-15T11:43:13.651Z,1021.20
2017-10-15T11:44:13.593Z,1021.17
2017-10-15T11:45:13.553Z,1021.14
2017-10-15T11:46:13.514Z,1021.10
2017-10-15T11:47:13.502Z,1021.13
2017-10-15T11:48:13.400Z,1021.13
2017-10-15T11:49:13.370Z,1021.09
2017-10-15T11:50:13.316Z,1021.12
2017-10-15T11:51:13.261Z,1021.07
2017-10-15T11:52:13.208Z,1021.07
2017-10-15T11:53:13.155Z,1021.07
2017-10-15T11:54:13.106Z,1021.07
2017-10-15T11:55:13.056Z,1021.06
2017-10-15T11:56:13.003Z,1021.02
2017-10-15T11:57:12.954Z,1020.98
2017-10-15T11:58:12.911Z,1021.01
2017-10-15T11:59:12.861Z,1021.00
2017-10-15T12:00:12.812Z,1020.96
2017-10-15T12:01:12.761Z,1020.95
2017-10-15T12:02:12.731Z,1020.92
2017-10-15T12:03:12.673Z,1020.93
2017-10-15T12:04:12.617Z,1020.92
2017-10-15T12:05:12.564Z,1020.83